createdAt,value
2022-10-26T00:01:22.997Z,48.95
2022-10-26T00:06:30.097Z,46.33
2022-10-26T00:11:31.831Z,51.72
2022-10-26T00:16:33.854Z,46.78
2022-10-26T00:21:35.866Z,58.40
2022-10-26T00:26:37.779Z,52.63
2022-10-26T00:31:40.273Z,48.55
2022-10-26T00:36:42.026Z,50.70
2022-10-26T00:41:43.811Z,51.30
2022-10-26T00:46:45.561Z,49.15
2022-10-26T00:51:52.261Z,48.78
2022-10-26T00:56:55.459Z,62.92
2022-10-26T01:01:57.294Z,54.78
2022-10-26T01:07:01.499Z,50.92
2022-10-26T01:12:03.439Z,69.70
2022-10-26T01:17:20.710Z,57.05
2022-10-26T01:22:40.516Z,54.00
2022-10-26T01:27:46.466Z,79.57
2022-10-26T01:33:14.099Z,66.82
2022-10-26T01:38:35.004Z,69.90
2022-10-26T01:43:42.165Z,61.00
2022-10-26T01:48:45.351Z,50.67
2022-10-26T01:53:47.861Z,57.80
2022-10-26T01:59:12.512Z,62.38
2022-10-26T02:04:54.237Z,59.25
2022-10-26T02:10:31.640Z,64.55
2022-10-26T02:15:49.303Z,53.72
2022-10-26T02:20:55.439Z,63.22
2022-10-26T02:26:00.595Z,67.93
2022-10-26T02:31:04.635Z,67.82
2022-10-26T02:36:11.508Z,51.67
2022-10-26T02:41:15.695Z,63.90
2022-10-26T02:46:20.609Z,67.68
2022-10-26T02:51:45.597Z,77.82
2022-10-26T02:56:51.055Z,74.85
2022-10-26T03:01:53.813Z,82.50
2022-10-26T03:06:55.898Z,76.85
2022-10-26T03:11:57.782Z,81.13
2022-10-26T03:16:59.622Z,80.60
2022-10-26T03:22:01.382Z,80.32
2022-10-26T03:27:03.252Z,65.80
2022-10-26T03:32:05.402Z,73.68
2022-10-26T03:37:07.180Z,66.55
2022-10-26T03:42:08.917Z,64.43
2022-10-26T03:47:10.641Z,67.40
2022-10-26T03:52:12.383Z,60.35
2022-10-26T03:57:14.117Z,64.63
2022-10-26T04:02:16.123Z,70.03
2022-10-26T04:07:17.877Z,75.38
2022-10-26T04:12:19.628Z,61.15
2022-10-26T04:17:21.462Z,60.67
2022-10-26T04:22:23.218Z,70.72
2022-10-26T04:27:25.299Z,63.10
2022-10-26T04:32:27.116Z,67.05
2022-10-26T04:37:28.849Z,59.92
2022-10-26T04:42:33.971Z,64.88
2022-10-26T04:47:35.823Z,69.82
2022-10-26T04:52:38.199Z,66.57
2022-10-26T04:57:39.944Z,67.10
2022-10-26T05:02:41.659Z,69.55
2022-10-26T05:07:43.573Z,66.30
2022-10-26T05:12:54.681Z,65.75
2022-10-26T05:18:03.780Z,50.15
2022-10-26T05:23:07.607Z,65.35
2022-10-26T05:28:13.972Z,57.10
2022-10-26T05:33:15.842Z,46.22
2022-10-26T05:38:18.254Z,56.50
2022-10-26T05:43:22.199Z,51.50
2022-10-26T05:48:23.999Z,47.00
2022-10-26T05:53:26.076Z,54.58
2022-10-26T05:58:28.163Z,52.20
2022-10-26T06:03:57.705Z,44.83
2022-10-26T06:08:59.613Z,41.50
2022-10-26T06:14:01.701Z,37.45
2022-10-26T06:19:17.997Z,38.05
2022-10-26T06:24:57.252Z,36.47
2022-10-26T06:30:04.050Z,29.58
2022-10-26T06:35:17.896Z,23.65
2022-10-26T06:40:20.478Z,29.83
2022-10-26T06:45:22.578Z,26.67
2022-10-26T06:50:34.024Z,31.00
2022-10-26T06:55:42.109Z,28.02
2022-10-26T07:00:46.760Z,23.20
2022-10-26T07:05:48.958Z,24.60
2022-10-26T07:10:50.708Z,33.05
2022-10-26T07:15:52.460Z,26.67
2022-10-26T07:20:54.217Z,24.15
2022-10-26T07:25:55.967Z,26.65
2022-10-26T07:30:58.791Z,26.30
2022-10-26T07:36:00.620Z,24.50
2022-10-26T07:41:02.832Z,34.33
2022-10-26T07:46:04.654Z,27.30
2022-10-26T07:51:06.379Z,25.08
2022-10-26T07:56:09.980Z,27.42
2022-10-26T08:01:14.200Z,31.08
2022-10-26T08:06:16.008Z,26.38
2022-10-26T08:11:18.285Z,21.38
2022-10-26T08:16:20.508Z,21.58
2022-10-26T08:21:35.794Z,30.00
2022-10-26T08:26:42.163Z,31.27
2022-10-26T08:31:44.437Z,32.15
2022-10-26T08:36:46.461Z,31.50
2022-10-26T08:41:53.452Z,29.77
2022-10-26T08:47:20.918Z,22.27
2022-10-26T08:52:50.590Z,20.95
2022-10-26T08:57:53.549Z,22.05
2022-10-26T09:02:55.582Z,24.25
2022-10-26T09:08:09.496Z,19.75
2022-10-26T09:13:36.660Z,19.02
2022-10-26T09:19:10.544Z,25.25
2022-10-26T09:24:25.855Z,17.90
2022-10-26T09:29:31.935Z,18.88
2022-10-26T09:34:56.644Z,21.70
2022-10-26T09:40:18.209Z,20.52
2022-10-26T09:45:32.823Z,23.15
2022-10-26T09:50:37.609Z,30.05
2022-10-26T09:55:43.802Z,20.60
2022-10-26T10:00:46.888Z,23.48
2022-10-26T10:05:51.694Z,29.90
2022-10-26T10:11:02.243Z,24.63
2022-10-26T10:16:08.604Z,24.15
2022-10-26T10:21:11.268Z,21.05
2022-10-26T10:26:13.042Z,25.23
2022-10-26T10:31:23.036Z,25.70
2022-10-26T10:36:30.398Z,20.85
2022-10-26T10:41:36.598Z,25.85
2022-10-26T10:46:38.653Z,18.77
2022-10-26T10:51:40.879Z,19.73
2022-10-26T10:56:49.060Z,24.75
2022-10-26T11:02:16.459Z,15.73
2022-10-26T11:07:20.186Z,12.68
2022-10-26T11:12:33.019Z,15.68
2022-10-26T11:17:46.660Z,15.30
2022-10-26T11:23:22.184Z,14.40
2022-10-26T11:28:45.274Z,9.13
2022-10-26T11:34:03.901Z,8.25
2022-10-26T11:39:16.418Z,7.78
2022-10-26T11:44:58.290Z,10.00
2022-10-26T11:50:05.563Z,11.32
2022-10-26T11:55:10.674Z,7.13
2022-10-26T12:00:17.763Z,10.68
2022-10-26T12:05:28.143Z,7.07
2022-10-26T12:10:36.372Z,8.13
2022-10-26T12:16:04.711Z,6.68
2022-10-26T12:21:08.787Z,10.73
2022-10-26T12:26:28.729Z,10.73
2022-10-26T12:31:36.068Z,13.65
2022-10-26T12:37:07.297Z,7.63
2022-10-26T12:42:08.950Z,8.05
2022-10-26T12:47:31.415Z,5.55
2022-10-26T12:52:38.517Z,8.68
2022-10-26T12:58:24.555Z,11.38
2022-10-26T13:03:57.275Z,7.38
2022-10-26T13:09:00.262Z,9.38
2022-10-26T13:14:07.034Z,8.00
2022-10-26T13:19:30.412Z,7.93
2022-10-26T13:24:34.624Z,8.65
2022-10-26T13:30:04.545Z,6.03
2022-10-26T13:35:12.049Z,4.68
2022-10-26T13:45:27.512Z,9.80
2022-10-26T13:50:40.874Z,6.65
2022-10-26T13:55:55.230Z,9.52
2022-10-26T14:01:14.536Z,9.05
2022-10-26T14:06:32.068Z,12.25
2022-10-26T14:11:49.299Z,8.50
2022-10-26T14:16:53.183Z,7.82
2022-10-26T14:21:56.020Z,7.38
2022-10-26T14:26:58.052Z,10.05
2022-10-26T14:32:00.127Z,5.82
2022-10-26T14:37:04.660Z,6.65
2022-10-26T14:42:31.597Z,8.63
2022-10-26T14:47:36.404Z,5.38
2022-10-26T14:52:38.511Z,8.85
2022-10-26T14:57:42.302Z,8.60
2022-10-26T15:02:49.369Z,3.90
2022-10-26T15:07:52.700Z,8.73
2022-10-26T15:12:54.791Z,7.72
2022-10-26T15:17:58.131Z,6.40
2022-10-26T15:23:03.665Z,10.65
2022-10-26T15:28:22.922Z,5.45
2022-10-26T15:33:24.796Z,8.38
2022-10-26T15:38:29.792Z,6.15
2022-10-26T15:43:33.809Z,5.57
2022-10-26T15:48:36.196Z,6.32
2022-10-26T15:53:38.128Z,7.05
2022-10-26T15:58:39.936Z,6.93
2022-10-26T16:03:41.669Z,13.25
2022-10-26T16:08:49.775Z,8.13
2022-10-26T16:13:51.616Z,8.60
2022-10-26T16:19:11.941Z,10.68
2022-10-26T16:24:17.207Z,10.27
2022-10-26T16:29:19.459Z,11.30
2022-10-26T16:34:21.210Z,7.47
2022-10-26T16:39:22.976Z,9.27
2022-10-26T16:44:24.694Z,11.48
2022-10-26T16:49:26.393Z,8.95
2022-10-26T16:54:31.028Z,10.32
2022-10-26T16:59:32.809Z,12.73
2022-10-26T17:04:34.606Z,10.65
2022-10-26T17:09:36.382Z,11.88
2022-10-26T17:14:38.345Z,7.43
2022-10-26T17:19:40.069Z,11.20
2022-10-26T17:24:41.812Z,9.45
2022-10-26T17:29:43.692Z,8.13
2022-10-26T17:34:45.889Z,9.73
2022-10-26T17:39:47.876Z,13.02
2022-10-26T17:44:49.590Z,12.70
2022-10-26T17:49:51.319Z,8.13
2022-10-26T17:54:53.087Z,9.40
2022-10-26T17:59:54.884Z,9.63
2022-10-26T18:04:56.902Z,12.70
2022-10-26T18:10:08.944Z,16.02
2022-10-26T18:15:20.681Z,12.02
2022-10-26T18:20:22.380Z,23.83
2022-10-26T18:25:25.435Z,16.33
2022-10-26T18:30:27.255Z,21.88
2022-10-26T18:35:29.020Z,16.98
2022-10-26T18:40:30.795Z,11.23
2022-10-26T18:45:32.495Z,13.50
2022-10-26T18:50:35.815Z,17.40
2022-10-26T18:55:37.541Z,17.63
2022-10-26T19:00:40.507Z,19.67
2022-10-26T19:05:42.296Z,16.25
2022-10-26T19:10:44.035Z,12.18
2022-10-26T19:15:45.844Z,14.23
2022-10-26T19:20:49.557Z,15.23
2022-10-26T19:25:55.545Z,11.82
2022-10-26T19:30:57.510Z,12.63
2022-10-26T19:36:04.401Z,16.80
2022-10-26T19:41:08.422Z,13.32
2022-10-26T19:46:16.086Z,7.93
2022-10-26T19:51:18.329Z,14.65
2022-10-26T19:56:21.619Z,12.57
2022-10-26T20:01:23.682Z,10.93
2022-10-26T20:06:25.583Z,8.55
2022-10-26T20:11:27.543Z,11.25
2022-10-26T20:16:29.286Z,17.88
2022-10-26T20:21:32.042Z,9.38
2022-10-26T20:26:33.927Z,8.93
2022-10-26T20:31:35.665Z,8.95
2022-10-26T20:36:37.437Z,9.80
2022-10-26T20:41:43.430Z,10.32
2022-10-26T20:46:45.615Z,14.75
2022-10-26T20:52:18.949Z,13.60
2022-10-26T20:57:17.946Z,11.55
2022-10-26T21:02:21.088Z,13.90
2022-10-26T21:07:22.883Z,7.82
2022-10-26T21:12:24.680Z,10.50
2022-10-26T21:17:26.423Z,8.50
2022-10-26T21:22:28.227Z,15.57
2022-10-26T21:27:29.947Z,13.52
2022-10-26T21:32:31.743Z,14.68
2022-10-26T21:37:33.475Z,14.10
2022-10-26T21:42:35.347Z,9.27
2022-10-26T21:47:37.093Z,9.13
2022-10-26T21:52:38.852Z,10.35
2022-10-26T21:57:40.593Z,10.25
2022-10-26T22:02:42.355Z,7.65
2022-10-26T22:07:44.163Z,13.57
2022-10-26T22:12:45.894Z,11.10
2022-10-26T22:17:47.744Z,13.07
2022-10-26T22:22:49.691Z,15.27
2022-10-26T22:27:51.576Z,9.60
2022-10-26T22:32:53.691Z,10.40
2022-10-26T22:37:55.588Z,13.90
2022-10-26T22:42:57.362Z,12.00
2022-10-26T22:47:59.172Z,13.30
2022-10-26T22:53:00.928Z,9.32
2022-10-26T22:58:02.663Z,7.45
2022-10-26T23:03:05.386Z,5.88
2022-10-26T23:08:07.140Z,5.43
2022-10-26T23:13:08.955Z,5.18
2022-10-26T23:18:10.730Z,8.55
2022-10-26T23:23:12.490Z,5.38
2022-10-26T23:28:14.223Z,3.95
2022-10-26T23:33:16.045Z,7.30
2022-10-26T23:38:18.444Z,6.10
2022-10-26T23:43:20.576Z,6.93
2022-10-26T23:48:22.669Z,9.70
2022-10-26T23:53:25.421Z,9.48
2022-10-26T23:58:27.194Z,7.65
